sensor_id;sensor_type;location;lat;lon;timestamp;P1;durP1;ratioP1;P2;durP2;ratioP2
71298;SDS011;59083;47.974;21.722;2023-01-30T00:02:15;29.02;;;12.68;;
71298;SDS011;59083;47.974;21.722;2023-01-30T00:05:16;30.83;;;12.80;;
71298;SDS011;59083;47.974;21.722;2023-01-30T00:08:17;30.87;;;12.80;;
71298;SDS011;59083;47.974;21.722;2023-01-30T00:11:19;34.43;;;13.47;;
71298;SDS011;59083;47.974;21.722;2023-01-30T00:14:21;31.70;;;13.88;;
71298;SDS011;59083;47.974;21.722;2023-01-30T00:17:22;35.30;;;14.20;;
71298;SDS011;59083;47.974;21.722;2023-01-30T00:20:23;32.55;;;13.62;;
71298;SDS011;59083;47.974;21.722;2023-01-30T00:23:25;32.67;;;13.47;;
71298;SDS011;59083;47.974;21.722;2023-01-30T00:26:27;34.57;;;14.27;;
71298;SDS011;59083;47.974;21.722;2023-01-30T00:29:28;29.90;;;13.38;;
71298;SDS011;59083;47.974;21.722;2023-01-30T00:32:29;33.83;;;14.13;;
71298;SDS011;59083;47.974;21.722;2023-01-30T00:35:31;34.47;;;13.82;;
71298;SDS011;59083;47.974;21.722;2023-01-30T00:38:33;31.60;;;13.50;;
71298;SDS011;59083;47.974;21.722;2023-01-30T00:41:34;30.90;;;13.27;;
71298;SDS011;59083;47.974;21.722;2023-01-30T00:44:54;32.67;;;12.95;;
71298;SDS011;59083;47.974;21.722;2023-01-30T00:48:14;31.20;;;13.32;;
71298;SDS011;59083;47.974;21.722;2023-01-30T00:51:15;29.10;;;12.82;;
71298;SDS011;59083;47.974;21.722;2023-01-30T00:54:16;32.60;;;13.13;;
71298;SDS011;59083;47.974;21.722;2023-01-30T00:57:18;30.27;;;12.53;;
71298;SDS011;59083;47.974;21.722;2023-01-30T01:00:19;29.85;;;13.43;;
71298;SDS011;59083;47.974;21.722;2023-01-30T01:03:21;31.52;;;12.45;;
71298;SDS011;59083;47.974;21.722;2023-01-30T01:06:22;30.62;;;13.50;;
71298;SDS011;59083;47.974;21.722;2023-01-30T01:09:23;29.53;;;12.83;;
71298;SDS011;59083;47.974;21.722;2023-01-30T01:12:26;33.20;;;12.87;;
71298;SDS011;59083;47.974;21.722;2023-01-30T01:15:27;29.20;;;12.15;;
71298;SDS011;59083;47.974;21.722;2023-01-30T01:18:29;28.83;;;12.10;;
71298;SDS011;59083;47.974;21.722;2023-01-30T01:21:30;31.92;;;12.88;;
71298;SDS011;59083;47.974;21.722;2023-01-30T01:24:32;29.57;;;12.03;;
71298;SDS011;59083;47.974;21.722;2023-01-30T01:27:33;26.73;;;11.23;;
71298;SDS011;59083;47.974;21.722;2023-01-30T01:30:34;27.62;;;11.95;;
71298;SDS011;59083;47.974;21.722;2023-01-30T01:33:35;31.60;;;12.32;;
71298;SDS011;59083;47.974;21.722;2023-01-30T01:36:37;25.88;;;11.63;;
71298;SDS011;59083;47.974;21.722;2023-01-30T01:39:38;27.53;;;11.30;;
71298;SDS011;59083;47.974;21.722;2023-01-30T01:43:16;31.43;;;11.73;;
71298;SDS011;59083;47.974;21.722;2023-01-30T01:46:21;27.40;;;11.82;;
71298;SDS011;59083;47.974;21.722;2023-01-30T01:49:27;27.08;;;11.25;;
71298;SDS011;59083;47.974;21.722;2023-01-30T01:52:32;27.25;;;11.73;;
71298;SDS011;59083;47.974;21.722;2023-01-30T01:55:33;25.53;;;11.03;;
71298;SDS011;59083;47.974;21.722;2023-01-30T01:58:36;29.27;;;12.40;;
71298;SDS011;59083;47.974;21.722;2023-01-30T02:01:42;26.98;;;11.30;;
71298;SDS011;59083;47.974;21.722;2023-01-30T02:04:45;26.00;;;10.40;;
71298;SDS011;59083;47.974;21.722;2023-01-30T02:08:06;26.45;;;11.25;;
71298;SDS011;59083;47.974;21.722;2023-01-30T02:11:15;29.30;;;11.00;;
71298;SDS011;59083;47.974;21.722;2023-01-30T02:14:24;29.17;;;11.30;;
71298;SDS011;59083;47.974;21.722;2023-01-30T02:17:26;28.67;;;11.48;;
71298;SDS011;59083;47.974;21.722;2023-01-30T02:23:50;25.77;;;11.02;;
71298;SDS011;59083;47.974;21.722;2023-01-30T02:46:53;24.20;;;10.50;;
71298;SDS011;59083;47.974;21.722;2023-01-30T02:50:20;24.05;;;10.38;;
71298;SDS011;59083;47.974;21.722;2023-01-30T02:53:23;26.45;;;11.18;;
71298;SDS011;59083;47.974;21.722;2023-01-30T02:56:25;27.98;;;11.10;;
71298;SDS011;59083;47.974;21.722;2023-01-30T03:02:36;28.03;;;11.53;;
71298;SDS011;59083;47.974;21.722;2023-01-30T03:06:13;28.12;;;11.23;;
71298;SDS011;59083;47.974;21.722;2023-01-30T03:09:15;26.73;;;11.05;;
71298;SDS011;59083;47.974;21.722;2023-01-30T03:12:51;25.83;;;10.93;;
71298;SDS011;59083;47.974;21.722;2023-01-30T03:15:59;24.13;;;10.57;;
71298;SDS011;59083;47.974;21.722;2023-01-30T03:19:22;27.93;;;10.87;;
71298;SDS011;59083;47.974;21.722;2023-01-30T03:22:24;27.17;;;11.32;;
71298;SDS011;59083;47.974;21.722;2023-01-30T03:25:25;25.42;;;10.80;;
71298;SDS011;59083;47.974;21.722;2023-01-30T03:28:27;30.08;;;11.25;;
71298;SDS011;59083;47.974;21.722;2023-01-30T03:31:29;28.20;;;11.93;;
71298;SDS011;59083;47.974;21.722;2023-01-30T03:34:30;25.10;;;10.17;;
71298;SDS011;59083;47.974;21.722;2023-01-30T03:37:33;25.48;;;10.23;;
71298;SDS011;59083;47.974;21.722;2023-01-30T03:40:34;24.23;;;10.52;;
71298;SDS011;59083;47.974;21.722;2023-01-30T03:43:36;25.37;;;11.27;;
71298;SDS011;59083;47.974;21.722;2023-01-30T03:46:38;26.47;;;10.57;;
71298;SDS011;59083;47.974;21.722;2023-01-30T03:49:39;23.27;;;10.27;;
71298;SDS011;59083;47.974;21.722;2023-01-30T03:52:41;25.92;;;10.77;;
71298;SDS011;59083;47.974;21.722;2023-01-30T03:55:43;25.02;;;10.38;;
71298;SDS011;59083;47.974;21.722;2023-01-30T03:58:45;23.70;;;10.15;;
71298;SDS011;59083;47.974;21.722;2023-01-30T04:01:47;27.73;;;10.13;;
71298;SDS011;59083;47.974;21.722;2023-01-30T04:04:48;24.87;;;11.07;;
71298;SDS011;59083;47.974;21.722;2023-01-30T04:07:50;25.70;;;10.43;;
71298;SDS011;59083;47.974;21.722;2023-01-30T04:10:52;23.90;;;9.68;;
71298;SDS011;59083;47.974;21.722;2023-01-30T04:13:54;29.17;;;10.02;;
71298;SDS011;59083;47.974;21.722;2023-01-30T04:16:55;27.50;;;10.40;;
71298;SDS011;59083;47.974;21.722;2023-01-30T04:19:58;26.73;;;11.13;;
71298;SDS011;59083;47.974;21.722;2023-01-30T04:22:59;24.95;;;10.35;;
71298;SDS011;59083;47.974;21.722;2023-01-30T04:26:01;26.83;;;10.27;;
71298;SDS011;59083;47.974;21.722;2023-01-30T04:29:02;27.48;;;10.02;;
71298;SDS011;59083;47.974;21.722;2023-01-30T04:32:03;24.77;;;10.43;;
71298;SDS011;59083;47.974;21.722;2023-01-30T04:35:05;26.80;;;10.33;;
71298;SDS011;59083;47.974;21.722;2023-01-30T04:38:07;29.60;;;10.70;;
71298;SDS011;59083;47.974;21.722;2023-01-30T04:41:08;28.02;;;10.43;;
71298;SDS011;59083;47.974;21.722;2023-01-30T04:44:10;23.48;;;10.68;;
71298;SDS011;59083;47.974;21.722;2023-01-30T04:47:12;27.33;;;11.07;;
71298;SDS011;59083;47.974;21.722;2023-01-30T04:50:13;23.90;;;10.43;;
71298;SDS011;59083;47.974;21.722;2023-01-30T04:53:16;28.33;;;11.85;;
71298;SDS011;59083;47.974;21.722;2023-01-30T04:56:18;30.67;;;11.70;;
71298;SDS011;59083;47.974;21.722;2023-01-30T04:59:21;32.72;;;14.13;;
71298;SDS011;59083;47.974;21.722;2023-01-30T05:02:23;28.27;;;11.40;;
71298;SDS011;59083;47.974;21.722;2023-01-30T05:05:24;23.87;;;10.67;;
71298;SDS011;59083;47.974;21.722;2023-01-30T05:08:26;26.33;;;11.32;;
71298;SDS011;59083;47.974;21.722;2023-01-30T05:11:28;26.48;;;11.93;;
71298;SDS011;59083;47.974;21.722;2023-01-30T05:14:30;24.75;;;10.48;;
71298;SDS011;59083;47.974;21.722;2023-01-30T05:17:32;24.50;;;11.10;;
71298;SDS011;59083;47.974;21.722;2023-01-30T05:20:33;24.13;;;10.23;;
71298;SDS011;59083;47.974;21.722;2023-01-30T05:23:35;24.98;;;10.45;;
71298;SDS011;59083;47.974;21.722;2023-01-30T05:26:36;25.10;;;10.57;;
71298;SDS011;59083;47.974;21.722;2023-01-30T05:29:37;26.23;;;10.73;;
71298;SDS011;59083;47.974;21.722;2023-01-30T05:32:38;23.73;;;9.77;;
71298;SDS011;59083;47.974;21.722;2023-01-30T05:35:45;27.97;;;11.33;;
71298;SDS011;59083;47.974;21.722;2023-01-30T05:38:49;26.00;;;10.73;;
71298;SDS011;59083;47.974;21.722;2023-01-30T05:41:50;26.65;;;10.55;;
71298;SDS011;59083;47.974;21.722;2023-01-30T05:44:51;24.98;;;10.95;;
71298;SDS011;59083;47.974;21.722;2023-01-30T05:47:53;28.17;;;11.30;;
71298;SDS011;59083;47.974;21.722;2023-01-30T05:50:55;24.67;;;11.23;;
71298;SDS011;59083;47.974;21.722;2023-01-30T05:53:58;27.27;;;11.68;;
71298;SDS011;59083;47.974;21.722;2023-01-30T05:56:59;26.52;;;10.98;;
71298;SDS011;59083;47.974;21.722;2023-01-30T06:00:00;25.50;;;11.48;;
71298;SDS011;59083;47.974;21.722;2023-01-30T06:03:01;26.97;;;11.30;;
71298;SDS011;59083;47.974;21.722;2023-01-30T06:06:03;27.63;;;11.77;;
71298;SDS011;59083;47.974;21.722;2023-01-30T06:09:05;28.05;;;12.02;;
71298;SDS011;59083;47.974;21.722;2023-01-30T06:12:07;26.50;;;11.60;;
71298;SDS011;59083;47.974;21.722;2023-01-30T06:15:08;30.40;;;13.30;;
71298;SDS011;59083;47.974;21.722;2023-01-30T06:18:10;29.93;;;13.00;;
71298;SDS011;59083;47.974;21.722;2023-01-30T06:21:12;29.37;;;13.17;;
71298;SDS011;59083;47.974;21.722;2023-01-30T06:24:15;32.05;;;12.32;;
71298;SDS011;59083;47.974;21.722;2023-01-30T06:27:16;27.80;;;12.73;;
71298;SDS011;59083;47.974;21.722;2023-01-30T06:30:17;32.33;;;13.10;;
71298;SDS011;59083;47.974;21.722;2023-01-30T06:33:18;36.67;;;14.57;;
71298;SDS011;59083;47.974;21.722;2023-01-30T06:36:20;31.37;;;13.93;;
71298;SDS011;59083;47.974;21.722;2023-01-30T06:39:21;34.08;;;14.00;;
71298;SDS011;59083;47.974;21.722;2023-01-30T06:42:23;28.92;;;13.32;;
71298;SDS011;59083;47.974;21.722;2023-01-30T06:45:24;26.95;;;12.90;;
71298;SDS011;59083;47.974;21.722;2023-01-30T06:48:25;32.40;;;13.47;;
71298;SDS011;59083;47.974;21.722;2023-01-30T06:51:26;29.23;;;13.03;;
71298;SDS011;59083;47.974;21.722;2023-01-30T06:54:28;33.67;;;13.90;;
71298;SDS011;59083;47.974;21.722;2023-01-30T06:57:29;28.38;;;13.55;;
71298;SDS011;59083;47.974;21.722;2023-01-30T07:00:30;34.00;;;12.73;;
71298;SDS011;59083;47.974;21.722;2023-01-30T07:03:32;25.93;;;12.07;;
71298;SDS011;59083;47.974;21.722;2023-01-30T07:06:34;26.20;;;11.97;;
71298;SDS011;59083;47.974;21.722;2023-01-30T07:09:35;31.15;;;13.50;;
71298;SDS011;59083;47.974;21.722;2023-01-30T07:12:36;28.25;;;12.50;;
71298;SDS011;59083;47.974;21.722;2023-01-30T07:15:37;30.27;;;12.98;;
71298;SDS011;59083;47.974;21.722;2023-01-30T07:18:39;26.87;;;12.23;;
71298;SDS011;59083;47.974;21.722;2023-01-30T07:21:40;28.57;;;12.23;;
71298;SDS011;59083;47.974;21.722;2023-01-30T07:24:41;26.58;;;12.48;;
71298;SDS011;59083;47.974;21.722;2023-01-30T07:27:42;24.48;;;12.18;;
71298;SDS011;59083;47.974;21.722;2023-01-30T07:30:49;27.13;;;11.98;;
71298;SDS011;59083;47.974;21.722;2023-01-30T07:33:53;27.73;;;12.43;;
71298;SDS011;59083;47.974;21.722;2023-01-30T07:36:54;23.87;;;10.87;;
71298;SDS011;59083;47.974;21.722;2023-01-30T07:39:55;27.52;;;13.02;;
71298;SDS011;59083;47.974;21.722;2023-01-30T07:43:00;25.75;;;11.52;;
71298;SDS011;59083;47.974;21.722;2023-01-30T07:46:03;23.80;;;10.25;;
71298;SDS011;59083;47.974;21.722;2023-01-30T07:49:05;26.40;;;11.30;;
71298;SDS011;59083;47.974;21.722;2023-01-30T07:52:07;23.03;;;10.83;;
71298;SDS011;59083;47.974;21.722;2023-01-30T07:55:09;24.12;;;11.50;;
71298;SDS011;59083;47.974;21.722;2023-01-30T07:58:11;23.90;;;11.18;;
71298;SDS011;59083;47.974;21.722;2023-01-30T08:01:15;23.42;;;10.60;;
71298;SDS011;59083;47.974;21.722;2023-01-30T08:04:17;25.60;;;11.30;;
71298;SDS011;59083;47.974;21.722;2023-01-30T08:07:18;24.57;;;11.50;;
71298;SDS011;59083;47.974;21.722;2023-01-30T08:10:20;23.62;;;11.10;;
71298;SDS011;59083;47.974;21.722;2023-01-30T08:13:21;24.12;;;10.02;;
71298;SDS011;59083;47.974;21.722;2023-01-30T08:16:22;23.45;;;10.40;;
71298;SDS011;59083;47.974;21.722;2023-01-30T08:19:23;24.30;;;10.93;;
71298;SDS011;59083;47.974;21.722;2023-01-30T08:22:25;25.67;;;12.00;;
71298;SDS011;59083;47.974;21.722;2023-01-30T08:25:26;25.85;;;11.48;;
71298;SDS011;59083;47.974;21.722;2023-01-30T08:28:28;22.98;;;11.10;;
71298;SDS011;59083;47.974;21.722;2023-01-30T08:31:30;26.98;;;11.98;;
71298;SDS011;59083;47.974;21.722;2023-01-30T08:34:32;25.03;;;11.70;;
71298;SDS011;59083;47.974;21.722;2023-01-30T08:37:33;32.03;;;13.57;;
71298;SDS011;59083;47.974;21.722;2023-01-30T08:40:34;31.50;;;14.63;;
71298;SDS011;59083;47.974;21.722;2023-01-30T08:43:36;29.95;;;13.25;;
71298;SDS011;59083;47.974;21.722;2023-01-30T08:46:37;26.20;;;11.95;;
71298;SDS011;59083;47.974;21.722;2023-01-30T08:49:39;24.53;;;11.50;;
71298;SDS011;59083;47.974;21.722;2023-01-30T08:52:40;28.60;;;11.97;;
71298;SDS011;59083;47.974;21.722;2023-01-30T08:55:42;29.73;;;13.05;;
71298;SDS011;59083;47.974;21.722;2023-01-30T08:58:44;30.52;;;13.13;;
71298;SDS011;59083;47.974;21.722;2023-01-30T09:01:46;28.73;;;12.55;;
71298;SDS011;59083;47.974;21.722;2023-01-30T09:04:47;26.00;;;12.47;;
71298;SDS011;59083;47.974;21.722;2023-01-30T09:07:49;28.37;;;13.17;;
71298;SDS011;59083;47.974;21.722;2023-01-30T09:10:51;24.17;;;11.52;;
71298;SDS011;59083;47.974;21.722;2023-01-30T09:13:52;25.95;;;12.37;;
71298;SDS011;59083;47.974;21.722;2023-01-30T09:16:53;27.73;;;13.00;;
71298;SDS011;59083;47.974;21.722;2023-01-30T09:19:58;25.40;;;12.60;;
71298;SDS011;59083;47.974;21.722;2023-01-30T09:23:00;27.30;;;12.67;;
71298;SDS011;59083;47.974;21.722;2023-01-30T09:26:01;25.75;;;13.00;;
71298;SDS011;59083;47.974;21.722;2023-01-30T09:29:03;43.72;;;18.50;;
71298;SDS011;59083;47.974;21.722;2023-01-30T09:32:04;31.65;;;12.80;;
71298;SDS011;59083;47.974;21.722;2023-01-30T09:35:05;32.73;;;14.97;;
71298;SDS011;59083;47.974;21.722;2023-01-30T09:38:08;30.43;;;13.77;;
71298;SDS011;59083;47.974;21.722;2023-01-30T09:48:02;32.92;;;13.85;;
71298;SDS011;59083;47.974;21.722;2023-01-30T09:51:11;26.43;;;10.97;;
71298;SDS011;59083;47.974;21.722;2023-01-30T09:54:25;26.93;;;12.50;;
71298;SDS011;59083;47.974;21.722;2023-01-30T09:57:30;27.00;;;13.02;;
71298;SDS011;59083;47.974;21.722;2023-01-30T10:03:53;30.27;;;13.10;;
71298;SDS011;59083;47.974;21.722;2023-01-30T10:07:22;27.40;;;12.43;;
71298;SDS011;59083;47.974;21.722;2023-01-30T10:13:44;26.90;;;12.70;;
71298;SDS011;59083;47.974;21.722;2023-01-30T10:26:56;29.93;;;13.23;;
71298;SDS011;59083;47.974;21.722;2023-01-30T10:29:59;32.83;;;13.38;;
71298;SDS011;59083;47.974;21.722;2023-01-30T10:33:19;30.55;;;13.27;;
71298;SDS011;59083;47.974;21.722;2023-01-30T10:36:47;28.00;;;13.00;;
71298;SDS011;59083;47.974;21.722;2023-01-30T10:40:12;26.70;;;12.43;;
71298;SDS011;59083;47.974;21.722;2023-01-30T10:43:58;26.07;;;12.10;;
71298;SDS011;59083;47.974;21.722;2023-01-30T10:47:22;23.85;;;11.63;;
71298;SDS011;59083;47.974;21.722;2023-01-30T10:50:35;26.25;;;11.85;;
71298;SDS011;59083;47.974;21.722;2023-01-30T11:00:29;25.07;;;12.27;;
71298;SDS011;59083;47.974;21.722;2023-01-30T11:03:45;20.27;;;8.93;;
71298;SDS011;59083;47.974;21.722;2023-01-30T11:06:51;28.62;;;12.55;;
71298;SDS011;59083;47.974;21.722;2023-01-30T11:09:54;26.45;;;12.88;;
71298;SDS011;59083;47.974;21.722;2023-01-30T11:12:58;25.97;;;12.53;;
71298;SDS011;59083;47.974;21.722;2023-01-30T11:16:10;28.40;;;12.77;;
71298;SDS011;59083;47.974;21.722;2023-01-30T11:19:13;27.83;;;11.70;;
71298;SDS011;59083;47.974;21.722;2023-01-30T11:22:16;25.17;;;11.52;;
71298;SDS011;59083;47.974;21.722;2023-01-30T11:25:19;28.60;;;12.85;;
71298;SDS011;59083;47.974;21.722;2023-01-30T11:28:23;26.33;;;12.20;;
71298;SDS011;59083;47.974;21.722;2023-01-30T11:31:26;32.73;;;14.03;;
71298;SDS011;59083;47.974;21.722;2023-01-30T11:34:29;29.27;;;12.27;;
71298;SDS011;59083;47.974;21.722;2023-01-30T11:37:33;27.20;;;13.10;;
71298;SDS011;59083;47.974;21.722;2023-01-30T11:40:36;27.52;;;12.48;;
71298;SDS011;59083;47.974;21.722;2023-01-30T11:43:38;23.23;;;9.77;;
71298;SDS011;59083;47.974;21.722;2023-01-30T11:46:41;25.60;;;11.53;;
71298;SDS011;59083;47.974;21.722;2023-01-30T11:49:44;27.33;;;12.50;;
71298;SDS011;59083;47.974;21.722;2023-01-30T11:52:48;26.25;;;11.55;;
71298;SDS011;59083;47.974;21.722;2023-01-30T11:55:50;28.70;;;12.60;;
71298;SDS011;59083;47.974;21.722;2023-01-30T11:58:54;30.70;;;12.03;;
71298;SDS011;59083;47.974;21.722;2023-01-30T12:08:32;28.83;;;12.82;;
71298;SDS011;59083;47.974;21.722;2023-01-30T12:14:45;26.93;;;12.17;;
71298;SDS011;59083;47.974;21.722;2023-01-30T12:24:20;27.60;;;12.88;;
71298;SDS011;59083;47.974;21.722;2023-01-30T12:27:42;26.92;;;12.55;;
71298;SDS011;59083;47.974;21.722;2023-01-30T12:30:57;29.60;;;12.57;;
71298;SDS011;59083;47.974;21.722;2023-01-30T12:34:22;26.50;;;12.70;;
71298;SDS011;59083;47.974;21.722;2023-01-30T12:50:37;31.53;;;13.73;;
71298;SDS011;59083;47.974;21.722;2023-01-30T13:03:36;39.43;;;17.17;;
71298;SDS011;59083;47.974;21.722;2023-01-30T13:06:56;27.57;;;12.87;;
71298;SDS011;59083;47.974;21.722;2023-01-30T13:10:17;32.28;;;14.13;;
71298;SDS011;59083;47.974;21.722;2023-01-30T13:13:32;29.87;;;13.50;;
71298;SDS011;59083;47.974;21.722;2023-01-30T13:17:09;35.83;;;14.57;;
71298;SDS011;59083;47.974;21.722;2023-01-30T13:26:58;33.88;;;13.98;;
71298;SDS011;59083;47.974;21.722;2023-01-30T13:30:04;33.08;;;14.10;;
71298;SDS011;59083;47.974;21.722;2023-01-30T13:33:13;26.20;;;12.07;;
71298;SDS011;59083;47.974;21.722;2023-01-30T13:36:31;31.10;;;12.47;;
71298;SDS011;59083;47.974;21.722;2023-01-30T13:46:24;31.40;;;13.30;;
71298;SDS011;59083;47.974;21.722;2023-01-30T13:49:29;24.73;;;11.43;;
71298;SDS011;59083;47.974;21.722;2023-01-30T13:52:46;29.57;;;13.03;;
71298;SDS011;59083;47.974;21.722;2023-01-30T13:56:03;28.03;;;12.77;;
71298;SDS011;59083;47.974;21.722;2023-01-30T14:02:37;32.15;;;13.52;;
71298;SDS011;59083;47.974;21.722;2023-01-30T14:09:33;26.17;;;12.57;;
71298;SDS011;59083;47.974;21.722;2023-01-30T14:15:37;27.85;;;12.27;;
71298;SDS011;59083;47.974;21.722;2023-01-30T14:18:52;27.02;;;12.63;;
71298;SDS011;59083;47.974;21.722;2023-01-30T14:21:57;29.63;;;12.50;;
71298;SDS011;59083;47.974;21.722;2023-01-30T14:38:12;28.60;;;11.63;;
71298;SDS011;59083;47.974;21.722;2023-01-30T14:41:25;26.90;;;11.83;;
71298;SDS011;59083;47.974;21.722;2023-01-30T14:54:41;29.27;;;12.32;;
71298;SDS011;59083;47.974;21.722;2023-01-30T14:58:07;31.47;;;14.00;;
71298;SDS011;59083;47.974;21.722;2023-01-30T15:01:16;27.30;;;13.07;;
71298;SDS011;59083;47.974;21.722;2023-01-30T15:04:18;27.23;;;12.10;;
71298;SDS011;59083;47.974;21.722;2023-01-30T15:17:17;24.67;;;11.43;;
71298;SDS011;59083;47.974;21.722;2023-01-30T15:23:50;27.50;;;11.48;;
71298;SDS011;59083;47.974;21.722;2023-01-30T15:30:23;27.60;;;11.67;;
71298;SDS011;59083;47.974;21.722;2023-01-30T15:33:51;24.50;;;10.43;;
71298;SDS011;59083;47.974;21.722;2023-01-30T15:36:53;25.58;;;10.90;;
71298;SDS011;59083;47.974;21.722;2023-01-30T15:49:56;23.30;;;10.93;;
71298;SDS011;59083;47.974;21.722;2023-01-30T15:53:02;26.90;;;11.18;;
71298;SDS011;59083;47.974;21.722;2023-01-30T15:56:08;24.98;;;10.70;;
71298;SDS011;59083;47.974;21.722;2023-01-30T15:59:35;23.33;;;10.57;;
71298;SDS011;59083;47.974;21.722;2023-01-30T16:02:40;24.83;;;11.23;;
71298;SDS011;59083;47.974;21.722;2023-01-30T16:05:47;26.03;;;10.83;;
71298;SDS011;59083;47.974;21.722;2023-01-30T16:08:56;25.17;;;10.63;;
71298;SDS011;59083;47.974;21.722;2023-01-30T16:11:57;26.70;;;11.20;;
71298;SDS011;59083;47.974;21.722;2023-01-30T16:14:59;25.58;;;11.68;;
71298;SDS011;59083;47.974;21.722;2023-01-30T16:18:01;24.33;;;10.70;;
71298;SDS011;59083;47.974;21.722;2023-01-30T16:21:20;23.63;;;10.70;;
71298;SDS011;59083;47.974;21.722;2023-01-30T16:24:27;23.25;;;11.50;;
71298;SDS011;59083;47.974;21.722;2023-01-30T16:27:32;29.83;;;12.27;;
71298;SDS011;59083;47.974;21.722;2023-01-30T16:30:35;26.05;;;11.12;;
71298;SDS011;59083;47.974;21.722;2023-01-30T16:33:48;25.17;;;10.83;;
71298;SDS011;59083;47.974;21.722;2023-01-30T16:36:50;22.50;;;10.10;;
71298;SDS011;59083;47.974;21.722;2023-01-30T16:40:02;23.27;;;11.12;;
71298;SDS011;59083;47.974;21.722;2023-01-30T16:46:42;25.23;;;11.25;;
71298;SDS011;59083;47.974;21.722;2023-01-30T16:50:00;27.60;;;10.93;;
71298;SDS011;59083;47.974;21.722;2023-01-30T16:53:02;25.40;;;11.50;;
71298;SDS011;59083;47.974;21.722;2023-01-30T16:56:05;26.33;;;11.68;;
71298;SDS011;59083;47.974;21.722;2023-01-30T16:59:11;29.35;;;12.50;;
71298;SDS011;59083;47.974;21.722;2023-01-30T17:02:23;25.10;;;11.18;;
71298;SDS011;59083;47.974;21.722;2023-01-30T17:05:37;28.80;;;12.60;;
71298;SDS011;59083;47.974;21.722;2023-01-30T17:11:53;25.73;;;11.95;;
71298;SDS011;59083;47.974;21.722;2023-01-30T17:18:13;25.17;;;11.10;;
71298;SDS011;59083;47.974;21.722;2023-01-30T17:21:15;24.90;;;10.90;;
71298;SDS011;59083;47.974;21.722;2023-01-30T17:24:20;23.00;;;9.77;;
71298;SDS011;59083;47.974;21.722;2023-01-30T17:27:22;25.50;;;11.38;;
71298;SDS011;59083;47.974;21.722;2023-01-30T17:30:26;24.85;;;11.48;;
71298;SDS011;59083;47.974;21.722;2023-01-30T17:33:28;23.95;;;10.80;;
71298;SDS011;59083;47.974;21.722;2023-01-30T17:36:29;22.50;;;10.70;;
71298;SDS011;59083;47.974;21.722;2023-01-30T17:39:31;26.17;;;10.97;;
71298;SDS011;59083;47.974;21.722;2023-01-30T17:42:33;26.08;;;11.05;;
71298;SDS011;59083;47.974;21.722;2023-01-30T17:45:34;27.25;;;11.43;;
71298;SDS011;59083;47.974;21.722;2023-01-30T17:48:36;22.17;;;10.55;;
71298;SDS011;59083;47.974;21.722;2023-01-30T17:51:37;26.90;;;11.40;;
71298;SDS011;59083;47.974;21.722;2023-01-30T17:54:38;26.40;;;11.10;;
71298;SDS011;59083;47.974;21.722;2023-01-30T17:57:41;25.85;;;11.52;;
71298;SDS011;59083;47.974;21.722;2023-01-30T18:00:44;26.62;;;10.95;;
71298;SDS011;59083;47.974;21.722;2023-01-30T18:03:45;25.30;;;10.90;;
71298;SDS011;59083;47.974;21.722;2023-01-30T18:06:47;26.70;;;11.03;;
71298;SDS011;59083;47.974;21.722;2023-01-30T18:09:52;26.23;;;11.37;;
71298;SDS011;59083;47.974;21.722;2023-01-30T18:12:53;25.15;;;11.50;;
71298;SDS011;59083;47.974;21.722;2023-01-30T18:15:56;24.92;;;11.50;;
71298;SDS011;59083;47.974;21.722;2023-01-30T18:19:00;26.83;;;12.00;;
71298;SDS011;59083;47.974;21.722;2023-01-30T18:22:05;25.50;;;11.53;;
71298;SDS011;59083;47.974;21.722;2023-01-30T18:25:06;26.90;;;11.27;;
71298;SDS011;59083;47.974;21.722;2023-01-30T18:28:11;25.30;;;11.45;;
71298;SDS011;59083;47.974;21.722;2023-01-30T18:31:12;23.05;;;10.88;;
71298;SDS011;59083;47.974;21.722;2023-01-30T18:34:14;28.27;;;11.23;;
71298;SDS011;59083;47.974;21.722;2023-01-30T18:37:15;22.13;;;10.43;;
71298;SDS011;59083;47.974;21.722;2023-01-30T18:40:17;25.60;;;11.27;;
71298;SDS011;59083;47.974;21.722;2023-01-30T18:43:18;27.05;;;11.75;;
71298;SDS011;59083;47.974;21.722;2023-01-30T18:46:20;24.75;;;11.07;;
71298;SDS011;59083;47.974;21.722;2023-01-30T18:49:21;27.35;;;12.27;;
71298;SDS011;59083;47.974;21.722;2023-01-30T18:52:22;25.87;;;11.70;;
71298;SDS011;59083;47.974;21.722;2023-01-30T18:55:23;27.30;;;11.60;;
71298;SDS011;59083;47.974;21.722;2023-01-30T18:58:27;28.73;;;12.13;;
71298;SDS011;59083;47.974;21.722;2023-01-30T19:01:37;27.17;;;11.07;;
71298;SDS011;59083;47.974;21.722;2023-01-30T19:04:42;25.95;;;11.10;;
71298;SDS011;59083;47.974;21.722;2023-01-30T19:07:43;27.77;;;11.70;;
71298;SDS011;59083;47.974;21.722;2023-01-30T19:10:44;26.17;;;11.73;;
71298;SDS011;59083;47.974;21.722;2023-01-30T19:13:45;24.63;;;11.40;;
71298;SDS011;59083;47.974;21.722;2023-01-30T19:16:47;27.73;;;12.07;;
71298;SDS011;59083;47.974;21.722;2023-01-30T19:19:50;28.33;;;10.98;;
71298;SDS011;59083;47.974;21.722;2023-01-30T19:22:52;24.37;;;11.20;;
71298;SDS011;59083;47.974;21.722;2023-01-30T19:25:54;27.30;;;11.13;;
71298;SDS011;59083;47.974;21.722;2023-01-30T19:28:57;24.92;;;11.45;;
71298;SDS011;59083;47.974;21.722;2023-01-30T19:31:58;29.80;;;11.60;;
71298;SDS011;59083;47.974;21.722;2023-01-30T19:35:01;27.37;;;11.35;;
71298;SDS011;59083;47.974;21.722;2023-01-30T19:38:02;25.43;;;11.40;;
71298;SDS011;59083;47.974;21.722;2023-01-30T19:41:09;24.70;;;11.50;;
71298;SDS011;59083;47.974;21.722;2023-01-30T19:44:11;22.30;;;10.50;;
71298;SDS011;59083;47.974;21.722;2023-01-30T19:47:12;28.05;;;11.63;;
71298;SDS011;59083;47.974;21.722;2023-01-30T19:50:14;25.37;;;10.90;;
71298;SDS011;59083;47.974;21.722;2023-01-30T19:53:15;25.40;;;10.50;;
71298;SDS011;59083;47.974;21.722;2023-01-30T19:56:16;25.43;;;10.83;;
71298;SDS011;59083;47.974;21.722;2023-01-30T19:59:21;28.05;;;12.20;;
71298;SDS011;59083;47.974;21.722;2023-01-30T20:02:22;28.35;;;12.05;;
71298;SDS011;59083;47.974;21.722;2023-01-30T20:05:23;25.02;;;11.93;;
71298;SDS011;59083;47.974;21.722;2023-01-30T20:08:25;28.07;;;12.17;;
71298;SDS011;59083;47.974;21.722;2023-01-30T20:11:26;29.00;;;11.47;;
71298;SDS011;59083;47.974;21.722;2023-01-30T20:14:28;24.40;;;11.88;;
71298;SDS011;59083;47.974;21.722;2023-01-30T20:17:32;26.73;;;11.23;;
71298;SDS011;59083;47.974;21.722;2023-01-30T20:20:33;24.92;;;11.48;;
71298;SDS011;59083;47.974;21.722;2023-01-30T20:23:35;26.93;;;12.87;;
71298;SDS011;59083;47.974;21.722;2023-01-30T20:26:37;24.53;;;11.80;;
71298;SDS011;59083;47.974;21.722;2023-01-30T20:29:39;28.90;;;13.27;;
71298;SDS011;59083;47.974;21.722;2023-01-30T20:32:40;27.83;;;12.63;;
71298;SDS011;59083;47.974;21.722;2023-01-30T20:35:42;26.25;;;12.52;;
71298;SDS011;59083;47.974;21.722;2023-01-30T20:38:43;26.87;;;12.70;;
71298;SDS011;59083;47.974;21.722;2023-01-30T20:41:45;29.30;;;13.20;;
71298;SDS011;59083;47.974;21.722;2023-01-30T20:44:47;28.65;;;13.00;;